Riley, Kansas
Current Conditions -  °F | °C
As of 12:52 PM on Sunday 23 Nov 2014 (Local Time) from KMHK Reporting Station
Overcast Overcast  
Wind Chill: 42°   Ceiling: 1800
Heat Index: 48°   Visibility: 10mi
Dew Point: 42°   Wind: 17mph
Humidity: 80%   Direction: 360°N
Pressure: 29.43"   Gusts: 31mph
Location:  39.3°N, 96.83°W
Report Text: KMHK 231852Z 36015G27KT 320V040 10SM BKN018 OVC024 09/06 A2943 RMK AO2 PK WND 36027/1843 SLP965 T00890056
Loading
Personal Weather Stations






























Interactive Weather Map New forecast layout! Learn more

10-Day Weather Forecast

Advertisements
Track Severe Weather on mobile